sensor_id;sensor_type;location;lat;lon;timestamp;P1;durP1;ratioP1;P2;durP2;ratioP2
55067;SDS011;40965;52.368;9.712;2023-06-01T00:02:10;6.90;;;4.55;;
55067;SDS011;40965;52.368;9.712;2023-06-01T00:04:37;5.65;;;4.22;;
55067;SDS011;40965;52.368;9.712;2023-06-01T00:07:06;5.88;;;4.28;;
55067;SDS011;40965;52.368;9.712;2023-06-01T00:09:35;7.38;;;4.57;;
55067;SDS011;40965;52.368;9.712;2023-06-01T00:12:03;8.75;;;5.03;;
55067;SDS011;40965;52.368;9.712;2023-06-01T00:14:30;6.88;;;4.65;;
55067;SDS011;40965;52.368;9.712;2023-06-01T00:16:57;9.32;;;5.20;;
55067;SDS011;40965;52.368;9.712;2023-06-01T00:22:05;8.18;;;4.68;;
55067;SDS011;40965;52.368;9.712;2023-06-01T00:24:32;7.53;;;4.03;;
55067;SDS011;40965;52.368;9.712;2023-06-01T00:26:59;5.35;;;3.78;;
55067;SDS011;40965;52.368;9.712;2023-06-01T00:29:26;8.02;;;5.15;;
55067;SDS011;40965;52.368;9.712;2023-06-01T00:31:53;12.38;;;4.03;;
55067;SDS011;40965;52.368;9.712;2023-06-01T00:34:19;10.60;;;4.57;;
55067;SDS011;40965;52.368;9.712;2023-06-01T00:36:45;9.38;;;4.25;;
55067;SDS011;40965;52.368;9.712;2023-06-01T00:39:12;8.45;;;4.35;;
55067;SDS011;40965;52.368;9.712;2023-06-01T00:41:38;8.02;;;4.15;;
55067;SDS011;40965;52.368;9.712;2023-06-01T00:44:05;10.30;;;4.85;;
55067;SDS011;40965;52.368;9.712;2023-06-01T00:46:31;8.25;;;3.97;;
55067;SDS011;40965;52.368;9.712;2023-06-01T00:48:58;8.63;;;4.28;;
55067;SDS011;40965;52.368;9.712;2023-06-01T00:51:24;9.95;;;4.57;;
55067;SDS011;40965;52.368;9.712;2023-06-01T00:53:51;14.93;;;4.65;;
55067;SDS011;40965;52.368;9.712;2023-06-01T00:56:18;8.18;;;3.85;;
55067;SDS011;40965;52.368;9.712;2023-06-01T00:58:45;6.80;;;4.72;;
55067;SDS011;40965;52.368;9.712;2023-06-01T01:01:12;8.98;;;4.18;;
55067;SDS011;40965;52.368;9.712;2023-06-01T01:03:43;9.38;;;4.90;;
55067;SDS011;40965;52.368;9.712;2023-06-01T01:06:16;13.90;;;4.90;;
55067;SDS011;40965;52.368;9.712;2023-06-01T01:11:32;8.60;;;4.68;;
55067;SDS011;40965;52.368;9.712;2023-06-01T01:14:05;7.53;;;4.65;;
55067;SDS011;40965;52.368;9.712;2023-06-01T01:19:28;9.50;;;4.63;;
55067;SDS011;40965;52.368;9.712;2023-06-01T01:22:20;7.97;;;4.97;;
55067;SDS011;40965;52.368;9.712;2023-06-01T01:25:35;9.32;;;5.63;;
55067;SDS011;40965;52.368;9.712;2023-06-01T01:30:59;8.80;;;4.72;;
55067;SDS011;40965;52.368;9.712;2023-06-01T01:33:29;9.77;;;4.60;;
55067;SDS011;40965;52.368;9.712;2023-06-01T01:35:58;11.07;;;5.25;;
55067;SDS011;40965;52.368;9.712;2023-06-01T01:38:26;7.70;;;4.32;;
55067;SDS011;40965;52.368;9.712;2023-06-01T01:40:53;8.07;;;4.15;;
55067;SDS011;40965;52.368;9.712;2023-06-01T01:43:20;7.93;;;4.68;;
55067;SDS011;40965;52.368;9.712;2023-06-01T01:45:51;8.63;;;5.30;;
55067;SDS011;40965;52.368;9.712;2023-06-01T01:48:28;10.55;;;5.20;;
55067;SDS011;40965;52.368;9.712;2023-06-01T01:51:06;7.32;;;4.63;;
55067;SDS011;40965;52.368;9.712;2023-06-01T01:53:38;5.85;;;4.60;;
55067;SDS011;40965;52.368;9.712;2023-06-01T01:56:08;12.18;;;6.07;;
55067;SDS011;40965;52.368;9.712;2023-06-01T01:58:35;9.10;;;4.40;;
55067;SDS011;40965;52.368;9.712;2023-06-01T02:01:02;7.22;;;5.30;;
55067;SDS011;40965;52.368;9.712;2023-06-01T02:03:30;7.53;;;5.40;;
55067;SDS011;40965;52.368;9.712;2023-06-01T02:05:56;8.07;;;4.47;;
55067;SDS011;40965;52.368;9.712;2023-06-01T02:08:23;12.30;;;5.55;;
55067;SDS011;40965;52.368;9.712;2023-06-01T02:10:49;9.85;;;4.97;;
55067;SDS011;40965;52.368;9.712;2023-06-01T02:13:16;9.10;;;4.43;;
55067;SDS011;40965;52.368;9.712;2023-06-01T02:15:45;9.88;;;4.97;;
55067;SDS011;40965;52.368;9.712;2023-06-01T02:18:11;7.53;;;4.32;;
55067;SDS011;40965;52.368;9.712;2023-06-01T02:20:43;7.68;;;4.68;;
55067;SDS011;40965;52.368;9.712;2023-06-01T02:23:10;7.75;;;4.75;;
55067;SDS011;40965;52.368;9.712;2023-06-01T02:25:37;9.30;;;4.97;;
55067;SDS011;40965;52.368;9.712;2023-06-01T02:28:03;7.47;;;4.93;;
55067;SDS011;40965;52.368;9.712;2023-06-01T02:30:32;12.77;;;5.18;;
55067;SDS011;40965;52.368;9.712;2023-06-01T02:32:58;13.23;;;4.32;;
55067;SDS011;40965;52.368;9.712;2023-06-01T02:35:25;7.75;;;4.70;;
55067;SDS011;40965;52.368;9.712;2023-06-01T02:37:51;9.52;;;5.50;;
55067;SDS011;40965;52.368;9.712;2023-06-01T02:40:17;9.73;;;5.15;;
55067;SDS011;40965;52.368;9.712;2023-06-01T02:42:44;8.32;;;4.95;;
55067;SDS011;40965;52.368;9.712;2023-06-01T02:45:10;9.35;;;5.13;;
55067;SDS011;40965;52.368;9.712;2023-06-01T02:47:37;10.32;;;4.80;;
55067;SDS011;40965;52.368;9.712;2023-06-01T02:50:04;7.88;;;5.63;;
55067;SDS011;40965;52.368;9.712;2023-06-01T02:52:31;8.25;;;5.07;;
55067;SDS011;40965;52.368;9.712;2023-06-01T02:54:58;11.23;;;5.30;;
55067;SDS011;40965;52.368;9.712;2023-06-01T02:57:24;11.18;;;5.30;;
55067;SDS011;40965;52.368;9.712;2023-06-01T02:59:51;10.68;;;4.70;;
55067;SDS011;40965;52.368;9.712;2023-06-01T03:02:17;10.80;;;5.03;;
55067;SDS011;40965;52.368;9.712;2023-06-01T03:04:44;13.43;;;5.47;;
55067;SDS011;40965;52.368;9.712;2023-06-01T03:07:10;16.20;;;5.30;;
55067;SDS011;40965;52.368;9.712;2023-06-01T03:09:37;8.98;;;5.18;;
55067;SDS011;40965;52.368;9.712;2023-06-01T03:12:04;7.65;;;3.78;;
55067;SDS011;40965;52.368;9.712;2023-06-01T03:14:31;7.28;;;5.82;;
55067;SDS011;40965;52.368;9.712;2023-06-01T03:16:58;7.03;;;4.88;;
55067;SDS011;40965;52.368;9.712;2023-06-01T03:19:25;11.07;;;5.82;;
55067;SDS011;40965;52.368;9.712;2023-06-01T03:21:51;12.70;;;5.72;;
55067;SDS011;40965;52.368;9.712;2023-06-01T03:24:18;10.85;;;5.63;;
55067;SDS011;40965;52.368;9.712;2023-06-01T03:26:44;10.18;;;6.03;;
55067;SDS011;40965;52.368;9.712;2023-06-01T03:29:11;11.23;;;5.63;;
55067;SDS011;40965;52.368;9.712;2023-06-01T03:31:37;8.52;;;4.68;;
55067;SDS011;40965;52.368;9.712;2023-06-01T03:34:08;12.00;;;5.07;;
55067;SDS011;40965;52.368;9.712;2023-06-01T03:36:35;6.75;;;4.45;;
55067;SDS011;40965;52.368;9.712;2023-06-01T03:39:02;11.23;;;5.68;;
55067;SDS011;40965;52.368;9.712;2023-06-01T03:41:33;9.85;;;5.72;;
55067;SDS011;40965;52.368;9.712;2023-06-01T03:44:01;9.45;;;5.28;;
55067;SDS011;40965;52.368;9.712;2023-06-01T03:46:53;7.55;;;5.50;;
55067;SDS011;40965;52.368;9.712;2023-06-01T03:49:20;14.88;;;6.50;;
55067;SDS011;40965;52.368;9.712;2023-06-01T03:52:12;8.20;;;5.60;;
55067;SDS011;40965;52.368;9.712;2023-06-01T03:54:41;15.90;;;7.50;;
55067;SDS011;40965;52.368;9.712;2023-06-01T03:57:08;11.57;;;6.15;;
55067;SDS011;40965;52.368;9.712;2023-06-01T03:59:34;12.05;;;5.90;;
55067;SDS011;40965;52.368;9.712;2023-06-01T04:02:01;12.75;;;5.68;;
55067;SDS011;40965;52.368;9.712;2023-06-01T04:04:29;10.63;;;6.38;;
55067;SDS011;40965;52.368;9.712;2023-06-01T04:06:55;10.90;;;6.03;;
55067;SDS011;40965;52.368;9.712;2023-06-01T04:09:26;10.15;;;5.45;;
55067;SDS011;40965;52.368;9.712;2023-06-01T04:11:53;13.23;;;6.63;;
55067;SDS011;40965;52.368;9.712;2023-06-01T04:14:19;13.70;;;6.85;;
55067;SDS011;40965;52.368;9.712;2023-06-01T04:16:46;8.88;;;5.25;;
55067;SDS011;40965;52.368;9.712;2023-06-01T04:19:12;8.75;;;5.75;;
55067;SDS011;40965;52.368;9.712;2023-06-01T04:21:39;12.48;;;6.53;;
55067;SDS011;40965;52.368;9.712;2023-06-01T04:24:06;13.15;;;6.18;;
55067;SDS011;40965;52.368;9.712;2023-06-01T04:26:32;12.88;;;6.35;;
55067;SDS011;40965;52.368;9.712;2023-06-01T04:29:01;10.27;;;5.85;;
55067;SDS011;40965;52.368;9.712;2023-06-01T04:31:28;7.38;;;5.05;;
55067;SDS011;40965;52.368;9.712;2023-06-01T04:33:57;11.55;;;6.30;;
55067;SDS011;40965;52.368;9.712;2023-06-01T04:36:26;9.55;;;5.38;;
55067;SDS011;40965;52.368;9.712;2023-06-01T04:38:54;8.50;;;4.80;;
55067;SDS011;40965;52.368;9.712;2023-06-01T04:41:22;10.15;;;5.55;;
55067;SDS011;40965;52.368;9.712;2023-06-01T04:43:51;8.20;;;4.43;;
55067;SDS011;40965;52.368;9.712;2023-06-01T04:46:21;6.88;;;4.72;;
55067;SDS011;40965;52.368;9.712;2023-06-01T04:48:50;6.50;;;4.25;;
55067;SDS011;40965;52.368;9.712;2023-06-01T04:51:17;7.60;;;3.83;;
55067;SDS011;40965;52.368;9.712;2023-06-01T04:53:46;13.70;;;4.10;;
55067;SDS011;40965;52.368;9.712;2023-06-01T04:56:22;7.25;;;4.13;;
55067;SDS011;40965;52.368;9.712;2023-06-01T04:58:52;8.48;;;4.50;;
55067;SDS011;40965;52.368;9.712;2023-06-01T05:01:23;4.80;;;3.50;;
55067;SDS011;40965;52.368;9.712;2023-06-01T05:03:54;11.63;;;5.47;;
55067;SDS011;40965;52.368;9.712;2023-06-01T05:06:22;6.15;;;4.28;;
55067;SDS011;40965;52.368;9.712;2023-06-01T05:08:49;11.82;;;4.25;;
55067;SDS011;40965;52.368;9.712;2023-06-01T05:11:16;6.22;;;3.92;;
55067;SDS011;40965;52.368;9.712;2023-06-01T05:13:42;7.15;;;4.03;;
55067;SDS011;40965;52.368;9.712;2023-06-01T05:16:09;9.57;;;4.40;;
55067;SDS011;40965;52.368;9.712;2023-06-01T05:18:40;9.65;;;4.22;;
55067;SDS011;40965;52.368;9.712;2023-06-01T05:21:06;10.40;;;4.68;;
55067;SDS011;40965;52.368;9.712;2023-06-01T05:23:33;8.05;;;4.38;;
55067;SDS011;40965;52.368;9.712;2023-06-01T05:25:59;15.00;;;4.97;;
55067;SDS011;40965;52.368;9.712;2023-06-01T05:28:28;14.02;;;5.05;;
55067;SDS011;40965;52.368;9.712;2023-06-01T05:30:56;9.48;;;5.45;;
55067;SDS011;40965;52.368;9.712;2023-06-01T05:33:23;9.48;;;5.40;;
55067;SDS011;40965;52.368;9.712;2023-06-01T05:35:50;8.68;;;5.88;;
55067;SDS011;40965;52.368;9.712;2023-06-01T05:38:18;11.63;;;6.20;;
55067;SDS011;40965;52.368;9.712;2023-06-01T05:40:45;6.07;;;3.90;;
55067;SDS011;40965;52.368;9.712;2023-06-01T05:43:11;8.45;;;5.85;;
55067;SDS011;40965;52.368;9.712;2023-06-01T05:45:38;11.55;;;5.53;;
55067;SDS011;40965;52.368;9.712;2023-06-01T05:48:04;5.93;;;4.15;;
55067;SDS011;40965;52.368;9.712;2023-06-01T05:50:31;10.43;;;4.10;;
55067;SDS011;40965;52.368;9.712;2023-06-01T05:52:57;6.28;;;3.55;;
55067;SDS011;40965;52.368;9.712;2023-06-01T05:55:24;9.00;;;4.22;;
55067;SDS011;40965;52.368;9.712;2023-06-01T05:57:50;8.05;;;5.07;;
55067;SDS011;40965;52.368;9.712;2023-06-01T06:00:19;8.88;;;5.03;;
55067;SDS011;40965;52.368;9.712;2023-06-01T06:02:45;10.25;;;5.18;;
55067;SDS011;40965;52.368;9.712;2023-06-01T06:05:12;9.80;;;6.35;;
55067;SDS011;40965;52.368;9.712;2023-06-01T06:07:38;7.60;;;5.25;;
55067;SDS011;40965;52.368;9.712;2023-06-01T06:10:05;16.05;;;7.18;;
55067;SDS011;40965;52.368;9.712;2023-06-01T06:12:32;9.05;;;5.15;;
55067;SDS011;40965;52.368;9.712;2023-06-01T06:14:59;9.00;;;6.82;;
55067;SDS011;40965;52.368;9.712;2023-06-01T06:17:25;7.90;;;5.78;;
55067;SDS011;40965;52.368;9.712;2023-06-01T06:19:52;10.27;;;6.47;;
55067;SDS011;40965;52.368;9.712;2023-06-01T06:22:18;13.85;;;6.18;;
55067;SDS011;40965;52.368;9.712;2023-06-01T06:24:45;11.68;;;6.32;;
55067;SDS011;40965;52.368;9.712;2023-06-01T06:27:12;11.10;;;6.03;;
55067;SDS011;40965;52.368;9.712;2023-06-01T06:29:39;9.18;;;6.15;;
55067;SDS011;40965;52.368;9.712;2023-06-01T06:32:05;8.40;;;5.72;;
55067;SDS011;40965;52.368;9.712;2023-06-01T06:34:32;16.92;;;6.75;;
55067;SDS011;40965;52.368;9.712;2023-06-01T06:37:04;9.23;;;6.13;;
55067;SDS011;40965;52.368;9.712;2023-06-01T06:39:31;11.98;;;7.03;;
55067;SDS011;40965;52.368;9.712;2023-06-01T06:41:59;12.63;;;7.57;;
55067;SDS011;40965;52.368;9.712;2023-06-01T06:44:27;15.55;;;8.40;;
55067;SDS011;40965;52.368;9.712;2023-06-01T06:46:54;12.60;;;8.05;;
55067;SDS011;40965;52.368;9.712;2023-06-01T06:49:20;8.57;;;6.60;;
55067;SDS011;40965;52.368;9.712;2023-06-01T06:51:47;14.30;;;7.90;;
55067;SDS011;40965;52.368;9.712;2023-06-01T06:54:13;16.17;;;9.73;;
55067;SDS011;40965;52.368;9.712;2023-06-01T06:56:40;18.40;;;10.50;;
55067;SDS011;40965;52.368;9.712;2023-06-01T06:59:06;21.73;;;11.52;;
55067;SDS011;40965;52.368;9.712;2023-06-01T07:01:32;21.65;;;12.65;;
55067;SDS011;40965;52.368;9.712;2023-06-01T07:04:01;21.80;;;12.55;;
55067;SDS011;40965;52.368;9.712;2023-06-01T07:06:29;21.17;;;13.93;;
55067;SDS011;40965;52.368;9.712;2023-06-01T07:08:55;25.38;;;13.70;;
55067;SDS011;40965;52.368;9.712;2023-06-01T07:11:21;21.50;;;13.80;;
55067;SDS011;40965;52.368;9.712;2023-06-01T07:13:48;19.83;;;12.40;;
55067;SDS011;40965;52.368;9.712;2023-06-01T07:16:15;22.15;;;12.98;;
55067;SDS011;40965;52.368;9.712;2023-06-01T07:18:41;20.88;;;12.05;;
55067;SDS011;40965;52.368;9.712;2023-06-01T07:21:08;19.83;;;13.02;;
55067;SDS011;40965;52.368;9.712;2023-06-01T07:23:34;17.65;;;12.02;;
55067;SDS011;40965;52.368;9.712;2023-06-01T07:26:01;21.02;;;13.45;;
55067;SDS011;40965;52.368;9.712;2023-06-01T07:28:27;19.45;;;13.40;;
55067;SDS011;40965;52.368;9.712;2023-06-01T07:30:55;21.05;;;13.88;;
55067;SDS011;40965;52.368;9.712;2023-06-01T07:33:21;21.25;;;12.82;;
55067;SDS011;40965;52.368;9.712;2023-06-01T07:35:50;20.55;;;11.60;;
55067;SDS011;40965;52.368;9.712;2023-06-01T07:38:18;16.60;;;10.13;;
55067;SDS011;40965;52.368;9.712;2023-06-01T07:40:46;16.38;;;10.13;;
55067;SDS011;40965;52.368;9.712;2023-06-01T07:43:13;16.92;;;9.77;;
55067;SDS011;40965;52.368;9.712;2023-06-01T07:45:40;17.17;;;8.65;;
55067;SDS011;40965;52.368;9.712;2023-06-01T07:48:06;17.00;;;8.30;;
55067;SDS011;40965;52.368;9.712;2023-06-01T07:50:33;17.40;;;8.73;;
55067;SDS011;40965;52.368;9.712;2023-06-01T07:53:01;11.65;;;7.80;;
55067;SDS011;40965;52.368;9.712;2023-06-01T07:55:27;13.02;;;8.52;;
55067;SDS011;40965;52.368;9.712;2023-06-01T07:57:54;10.80;;;7.40;;
55067;SDS011;40965;52.368;9.712;2023-06-01T08:00:21;12.80;;;7.07;;
55067;SDS011;40965;52.368;9.712;2023-06-01T08:02:47;11.82;;;6.28;;
55067;SDS011;40965;52.368;9.712;2023-06-01T08:05:14;10.05;;;6.05;;
55067;SDS011;40965;52.368;9.712;2023-06-01T08:07:43;14.50;;;7.00;;
55067;SDS011;40965;52.368;9.712;2023-06-01T08:10:11;6.60;;;4.95;;
55067;SDS011;40965;52.368;9.712;2023-06-01T08:12:38;8.05;;;4.65;;
55067;SDS011;40965;52.368;9.712;2023-06-01T08:15:07;7.43;;;4.63;;
55067;SDS011;40965;52.368;9.712;2023-06-01T08:17:35;7.53;;;5.03;;
55067;SDS011;40965;52.368;9.712;2023-06-01T08:20:02;9.50;;;4.32;;
55067;SDS011;40965;52.368;9.712;2023-06-01T08:22:33;7.53;;;4.78;;
55067;SDS011;40965;52.368;9.712;2023-06-01T08:24:59;6.60;;;4.22;;
55067;SDS011;40965;52.368;9.712;2023-06-01T08:27:26;8.10;;;4.32;;
55067;SDS011;40965;52.368;9.712;2023-06-01T08:29:53;7.05;;;3.83;;
55067;SDS011;40965;52.368;9.712;2023-06-01T08:32:21;8.45;;;4.53;;
55067;SDS011;40965;52.368;9.712;2023-06-01T08:34:49;11.88;;;4.78;;
55067;SDS011;40965;52.368;9.712;2023-06-01T08:37:16;10.35;;;5.18;;
55067;SDS011;40965;52.368;9.712;2023-06-01T08:39:43;7.70;;;4.45;;
55067;SDS011;40965;52.368;9.712;2023-06-01T08:42:29;7.32;;;5.50;;
55067;SDS011;40965;52.368;9.712;2023-06-01T08:45:04;9.50;;;4.95;;
55067;SDS011;40965;52.368;9.712;2023-06-01T08:47:33;9.00;;;4.97;;
55067;SDS011;40965;52.368;9.712;2023-06-01T08:50:03;9.45;;;4.78;;
55067;SDS011;40965;52.368;9.712;2023-06-01T08:52:31;8.70;;;4.22;;
55067;SDS011;40965;52.368;9.712;2023-06-01T08:55:01;5.07;;;4.10;;
55067;SDS011;40965;52.368;9.712;2023-06-01T08:57:28;5.25;;;3.55;;
55067;SDS011;40965;52.368;9.712;2023-06-01T08:59:56;5.07;;;3.10;;
55067;SDS011;40965;52.368;9.712;2023-06-01T09:02:24;4.55;;;3.00;;
55067;SDS011;40965;52.368;9.712;2023-06-01T09:04:52;4.18;;;3.28;;
55067;SDS011;40965;52.368;9.712;2023-06-01T09:07:19;6.90;;;2.92;;
55067;SDS011;40965;52.368;9.712;2023-06-01T09:09:47;3.08;;;2.55;;
55067;SDS011;40965;52.368;9.712;2023-06-01T09:15:13;2.40;;;2.03;;
55067;SDS011;40965;52.368;9.712;2023-06-01T09:17:44;4.60;;;2.42;;
55067;SDS011;40965;52.368;9.712;2023-06-01T09:20:25;2.42;;;1.70;;
55067;SDS011;40965;52.368;9.712;2023-06-01T09:22:54;2.92;;;2.00;;
55067;SDS011;40965;52.368;9.712;2023-06-01T09:25:25;3.90;;;1.95;;
55067;SDS011;40965;52.368;9.712;2023-06-01T09:27:59;3.53;;;2.17;;
55067;SDS011;40965;52.368;9.712;2023-06-01T09:30:49;3.67;;;2.05;;
55067;SDS011;40965;52.368;9.712;2023-06-01T09:33:15;2.13;;;1.92;;
55067;SDS011;40965;52.368;9.712;2023-06-01T09:35:46;4.53;;;2.00;;
55067;SDS011;40965;52.368;9.712;2023-06-01T09:38:24;2.40;;;1.90;;
55067;SDS011;40965;52.368;9.712;2023-06-01T09:40:59;1.92;;;1.65;;
55067;SDS011;40965;52.368;9.712;2023-06-01T09:43:28;1.85;;;1.60;;
55067;SDS011;40965;52.368;9.712;2023-06-01T09:46:08;2.55;;;1.40;;
55067;SDS011;40965;52.368;9.712;2023-06-01T09:48:38;8.10;;;1.60;;
55067;SDS011;40965;52.368;9.712;2023-06-01T09:51:20;1.58;;;1.40;;
55067;SDS011;40965;52.368;9.712;2023-06-01T09:53:54;1.85;;;1.65;;
55067;SDS011;40965;52.368;9.712;2023-06-01T09:56:21;2.15;;;1.95;;
55067;SDS011;40965;52.368;9.712;2023-06-01T09:58:47;2.00;;;1.33;;
55067;SDS011;40965;52.368;9.712;2023-06-01T10:01:14;4.57;;;1.80;;
55067;SDS011;40965;52.368;9.712;2023-06-01T10:03:43;1.75;;;1.65;;
55067;SDS011;40965;52.368;9.712;2023-06-01T10:06:11;1.30;;;1.17;;
55067;SDS011;40965;52.368;9.712;2023-06-01T10:08:38;2.47;;;1.30;;
55067;SDS011;40965;52.368;9.712;2023-06-01T10:11:07;1.30;;;1.20;;
55067;SDS011;40965;52.368;9.712;2023-06-01T10:13:35;1.70;;;1.42;;
55067;SDS011;40965;52.368;9.712;2023-06-01T10:16:01;1.65;;;1.30;;
55067;SDS011;40965;52.368;9.712;2023-06-01T10:18:28;6.90;;;1.88;;
55067;SDS011;40965;52.368;9.712;2023-06-01T10:20:55;1.10;;;1.10;;
55067;SDS011;40965;52.368;9.712;2023-06-01T10:23:22;1.85;;;1.40;;
55067;SDS011;40965;52.368;9.712;2023-06-01T10:25:51;1.13;;;1.02;;
55067;SDS011;40965;52.368;9.712;2023-06-01T10:28:18;1.92;;;1.50;;
55067;SDS011;40965;52.368;9.712;2023-06-01T10:30:46;2.40;;;1.33;;
55067;SDS011;40965;52.368;9.712;2023-06-01T10:33:13;2.20;;;1.40;;
55067;SDS011;40965;52.368;9.712;2023-06-01T10:40:38;1.63;;;1.50;;
55067;SDS011;40965;52.368;9.712;2023-06-01T10:43:05;3.47;;;1.30;;
55067;SDS011;40965;52.368;9.712;2023-06-01T10:48:03;1.35;;;1.25;;
55067;SDS011;40965;52.368;9.712;2023-06-01T10:50:38;1.48;;;1.38;;
55067;SDS011;40965;52.368;9.712;2023-06-01T11:01:35;1.42;;;1.33;;
55067;SDS011;40965;52.368;9.712;2023-06-01T11:04:06;2.15;;;1.23;;
55067;SDS011;40965;52.368;9.712;2023-06-01T11:06:40;2.28;;;1.92;;
55067;SDS011;40965;52.368;9.712;2023-06-01T11:09:11;2.15;;;1.75;;
55067;SDS011;40965;52.368;9.712;2023-06-01T11:14:23;4.07;;;2.30;;
55067;SDS011;40965;52.368;9.712;2023-06-01T11:16:56;2.95;;;1.83;;
55067;SDS011;40965;52.368;9.712;2023-06-01T11:19:58;2.20;;;2.00;;
55067;SDS011;40965;52.368;9.712;2023-06-01T11:22:36;1.70;;;1.63;;
55067;SDS011;40965;52.368;9.712;2023-06-01T11:25:04;1.90;;;1.80;;
55067;SDS011;40965;52.368;9.712;2023-06-01T11:27:33;2.80;;;1.77;;
55067;SDS011;40965;52.368;9.712;2023-06-01T11:30:01;2.53;;;1.50;;
55067;SDS011;40965;52.368;9.712;2023-06-01T11:32:28;2.17;;;1.48;;
55067;SDS011;40965;52.368;9.712;2023-06-01T11:34:57;3.15;;;1.52;;
55067;SDS011;40965;52.368;9.712;2023-06-01T11:37:24;2.45;;;1.83;;
55067;SDS011;40965;52.368;9.712;2023-06-01T11:39:54;1.77;;;1.65;;
55067;SDS011;40965;52.368;9.712;2023-06-01T11:42:34;1.88;;;1.63;;
55067;SDS011;40965;52.368;9.712;2023-06-01T11:45:01;2.00;;;1.90;;
55067;SDS011;40965;52.368;9.712;2023-06-01T11:47:30;4.13;;;1.90;;
55067;SDS011;40965;52.368;9.712;2023-06-01T11:49:58;1.80;;;1.70;;
55067;SDS011;40965;52.368;9.712;2023-06-01T11:52:25;3.17;;;2.30;;
55067;SDS011;40965;52.368;9.712;2023-06-01T11:54:51;4.03;;;2.25;;
55067;SDS011;40965;52.368;9.712;2023-06-01T11:57:18;2.25;;;1.73;;
55067;SDS011;40965;52.368;9.712;2023-06-01T11:59:45;2.15;;;1.98;;
55067;SDS011;40965;52.368;9.712;2023-06-01T12:02:22;1.88;;;1.50;;
55067;SDS011;40965;52.368;9.712;2023-06-01T12:05:01;1.35;;;1.25;;
55067;SDS011;40965;52.368;9.712;2023-06-01T12:07:32;2.78;;;1.85;;
55067;SDS011;40965;52.368;9.712;2023-06-01T12:10:11;2.83;;;2.13;;
55067;SDS011;40965;52.368;9.712;2023-06-01T12:12:40;3.17;;;2.10;;
55067;SDS011;40965;52.368;9.712;2023-06-01T12:15:17;4.72;;;2.40;;
55067;SDS011;40965;52.368;9.712;2023-06-01T12:17:52;2.22;;;2.13;;
55067;SDS011;40965;52.368;9.712;2023-06-01T12:20:30;2.17;;;1.98;;
55067;SDS011;40965;52.368;9.712;2023-06-01T12:25:37;3.60;;;2.72;;
55067;SDS011;40965;52.368;9.712;2023-06-01T12:28:22;2.20;;;2.00;;
55067;SDS011;40965;52.368;9.712;2023-06-01T12:30:51;3.83;;;2.85;;
55067;SDS011;40965;52.368;9.712;2023-06-01T12:33:36;1.92;;;1.80;;
55067;SDS011;40965;52.368;9.712;2023-06-01T12:36:03;4.50;;;2.50;;
55067;SDS011;40965;52.368;9.712;2023-06-01T12:38:34;4.90;;;2.63;;
55067;SDS011;40965;52.368;9.712;2023-06-01T12:41:17;2.67;;;2.40;;
55067;SDS011;40965;52.368;9.712;2023-06-01T12:43:49;3.95;;;2.30;;
55067;SDS011;40965;52.368;9.712;2023-06-01T12:46:26;2.38;;;2.05;;
55067;SDS011;40965;52.368;9.712;2023-06-01T12:49:11;5.10;;;2.80;;
55067;SDS011;40965;52.368;9.712;2023-06-01T12:51:41;4.70;;;2.28;;
55067;SDS011;40965;52.368;9.712;2023-06-01T12:54:08;4.97;;;2.13;;
55067;SDS011;40965;52.368;9.712;2023-06-01T12:56:35;3.72;;;2.45;;
55067;SDS011;40965;52.368;9.712;2023-06-01T12:59:02;2.78;;;2.35;;
55067;SDS011;40965;52.368;9.712;2023-06-01T13:01:31;2.38;;;2.17;;
55067;SDS011;40965;52.368;9.712;2023-06-01T13:03:58;2.03;;;1.92;;
55067;SDS011;40965;52.368;9.712;2023-06-01T13:06:25;3.67;;;2.40;;
55067;SDS011;40965;52.368;9.712;2023-06-01T13:08:54;2.88;;;2.08;;
55067;SDS011;40965;52.368;9.712;2023-06-01T13:11:21;3.08;;;2.65;;
55067;SDS011;40965;52.368;9.712;2023-06-01T13:13:48;4.63;;;1.98;;
55067;SDS011;40965;52.368;9.712;2023-06-01T13:16:15;2.08;;;1.85;;
55067;SDS011;40965;52.368;9.712;2023-06-01T13:18:42;3.10;;;2.10;;
55067;SDS011;40965;52.368;9.712;2023-06-01T13:21:10;1.95;;;1.83;;
55067;SDS011;40965;52.368;9.712;2023-06-01T13:23:38;2.28;;;2.00;;
55067;SDS011;40965;52.368;9.712;2023-06-01T13:26:11;6.60;;;1.63;;
55067;SDS011;40965;52.368;9.712;2023-06-01T13:28:39;2.83;;;1.75;;
55067;SDS011;40965;52.368;9.712;2023-06-01T13:31:05;2.58;;;2.38;;
55067;SDS011;40965;52.368;9.712;2023-06-01T13:33:33;7.55;;;4.95;;
55067;SDS011;40965;52.368;9.712;2023-06-01T13:36:01;4.38;;;2.97;;
55067;SDS011;40965;52.368;9.712;2023-06-01T13:38:28;2.58;;;2.35;;
55067;SDS011;40965;52.368;9.712;2023-06-01T13:40:58;3.50;;;3.20;;
55067;SDS011;40965;52.368;9.712;2023-06-01T13:43:24;1.90;;;1.80;;
55067;SDS011;40965;52.368;9.712;2023-06-01T13:45:51;3.95;;;2.85;;
55067;SDS011;40965;52.368;9.712;2023-06-01T13:48:18;6.10;;;2.00;;
55067;SDS011;40965;52.368;9.712;2023-06-01T13:50:45;1.75;;;1.65;;
55067;SDS011;40965;52.368;9.712;2023-06-01T13:53:12;3.17;;;1.60;;
55067;SDS011;40965;52.368;9.712;2023-06-01T13:55:39;1.65;;;1.55;;
55067;SDS011;40965;52.368;9.712;2023-06-01T13:58:06;2.65;;;2.00;;
55067;SDS011;40965;52.368;9.712;2023-06-01T14:00:32;3.30;;;1.83;;
55067;SDS011;40965;52.368;9.712;2023-06-01T14:02:59;1.98;;;1.88;;
55067;SDS011;40965;52.368;9.712;2023-06-01T14:05:25;2.63;;;2.38;;
55067;SDS011;40965;52.368;9.712;2023-06-01T14:07:52;3.75;;;1.98;;
55067;SDS011;40965;52.368;9.712;2023-06-01T14:10:18;3.58;;;2.40;;
55067;SDS011;40965;52.368;9.712;2023-06-01T14:12:45;2.40;;;2.15;;
55067;SDS011;40965;52.368;9.712;2023-06-01T14:15:11;2.10;;;1.92;;
55067;SDS011;40965;52.368;9.712;2023-06-01T14:17:38;3.85;;;2.78;;
55067;SDS011;40965;52.368;9.712;2023-06-01T14:20:05;3.67;;;2.38;;
55067;SDS011;40965;52.368;9.712;2023-06-01T14:22:33;3.10;;;2.42;;
55067;SDS011;40965;52.368;9.712;2023-06-01T14:24:59;4.10;;;1.80;;
55067;SDS011;40965;52.368;9.712;2023-06-01T14:27:29;4.30;;;2.05;;
55067;SDS011;40965;52.368;9.712;2023-06-01T14:29:56;3.83;;;2.63;;
55067;SDS011;40965;52.368;9.712;2023-06-01T14:32:23;3.47;;;2.40;;
55067;SDS011;40965;52.368;9.712;2023-06-01T14:34:49;4.63;;;2.70;;
55067;SDS011;40965;52.368;9.712;2023-06-01T14:37:16;3.10;;;2.80;;
55067;SDS011;40965;52.368;9.712;2023-06-01T14:39:44;3.33;;;2.65;;
55067;SDS011;40965;52.368;9.712;2023-06-01T14:42:12;3.88;;;2.20;;
55067;SDS011;40965;52.368;9.712;2023-06-01T14:44:38;6.95;;;2.90;;
55067;SDS011;40965;52.368;9.712;2023-06-01T14:47:05;5.13;;;2.72;;
55067;SDS011;40965;52.368;9.712;2023-06-01T14:49:32;4.15;;;2.30;;
55067;SDS011;40965;52.368;9.712;2023-06-01T14:51:58;5.43;;;2.15;;
55067;SDS011;40965;52.368;9.712;2023-06-01T14:54:24;2.80;;;2.08;;
55067;SDS011;40965;52.368;9.712;2023-06-01T14:56:51;5.60;;;2.10;;
55067;SDS011;40965;52.368;9.712;2023-06-01T14:59:18;6.43;;;3.00;;
55067;SDS011;40965;52.368;9.712;2023-06-01T15:01:44;3.05;;;2.20;;
55067;SDS011;40965;52.368;9.712;2023-06-01T15:04:11;4.57;;;3.25;;
55067;SDS011;40965;52.368;9.712;2023-06-01T15:06:37;4.93;;;3.00;;
55067;SDS011;40965;52.368;9.712;2023-06-01T15:09:04;3.42;;;2.55;;
55067;SDS011;40965;52.368;9.712;2023-06-01T15:11:31;5.13;;;2.28;;
55067;SDS011;40965;52.368;9.712;2023-06-01T15:13:57;3.58;;;2.40;;
55067;SDS011;40965;52.368;9.712;2023-06-01T15:16:24;2.17;;;1.95;;
55067;SDS011;40965;52.368;9.712;2023-06-01T15:18:52;5.63;;;2.38;;
55067;SDS011;40965;52.368;9.712;2023-06-01T15:21:19;4.90;;;2.13;;
55067;SDS011;40965;52.368;9.712;2023-06-01T15:23:45;3.38;;;2.20;;
55067;SDS011;40965;52.368;9.712;2023-06-01T15:26:12;7.93;;;2.92;;
55067;SDS011;40965;52.368;9.712;2023-06-01T15:28:38;6.30;;;3.00;;